sensor_id;sensor_type;location;lat;lon;timestamp;temperature;humidity
67890;DHT22;54685;52.082;5.426;2023-08-24T00:01:14;17.80;99.90
67890;DHT22;54685;52.082;5.426;2023-08-24T00:03:46;17.70;99.90
67890;DHT22;54685;52.082;5.426;2023-08-24T00:06:13;17.70;99.90
67890;DHT22;54685;52.082;5.426;2023-08-24T00:08:40;17.70;99.90
67890;DHT22;54685;52.082;5.426;2023-08-24T00:11:07;17.70;99.90
67890;DHT22;54685;52.082;5.426;2023-08-24T00:13:34;17.70;99.90
67890;DHT22;54685;52.082;5.426;2023-08-24T00:16:01;17.70;99.90
67890;DHT22;54685;52.082;5.426;2023-08-24T00:18:28;17.60;99.90
67890;DHT22;54685;52.082;5.426;2023-08-24T00:20:55;17.50;99.90
67890;DHT22;54685;52.082;5.426;2023-08-24T00:23:22;17.60;99.90
67890;DHT22;54685;52.082;5.426;2023-08-24T00:25:49;17.50;99.90
67890;DHT22;54685;52.082;5.426;2023-08-24T00:28:16;17.50;99.90
67890;DHT22;54685;52.082;5.426;2023-08-24T00:30:43;17.50;99.90
67890;DHT22;54685;52.082;5.426;2023-08-24T00:33:10;17.40;99.90
67890;DHT22;54685;52.082;5.426;2023-08-24T00:35:37;17.40;99.90
67890;DHT22;54685;52.082;5.426;2023-08-24T00:38:04;17.50;99.90
67890;DHT22;54685;52.082;5.426;2023-08-24T00:40:33;17.50;99.90
67890;DHT22;54685;52.082;5.426;2023-08-24T00:43:00;17.50;99.90
67890;DHT22;54685;52.082;5.426;2023-08-24T00:45:28;17.40;99.90
67890;DHT22;54685;52.082;5.426;2023-08-24T00:47:57;17.40;99.90
67890;DHT22;54685;52.082;5.426;2023-08-24T00:50:24;17.40;99.90
67890;DHT22;54685;52.082;5.426;2023-08-24T00:52:51;17.40;99.90
67890;DHT22;54685;52.082;5.426;2023-08-24T00:55:19;17.30;99.90
67890;DHT22;54685;52.082;5.426;2023-08-24T00:57:47;17.30;99.90
67890;DHT22;54685;52.082;5.426;2023-08-24T01:00:17;17.40;99.90
67890;DHT22;54685;52.082;5.426;2023-08-24T01:02:44;17.50;99.90
67890;DHT22;54685;52.082;5.426;2023-08-24T01:05:11;17.50;99.90
67890;DHT22;54685;52.082;5.426;2023-08-24T01:07:39;17.50;99.90
67890;DHT22;54685;52.082;5.426;2023-08-24T01:10:09;17.50;99.90
67890;DHT22;54685;52.082;5.426;2023-08-24T01:13:21;17.40;99.90
67890;DHT22;54685;52.082;5.426;2023-08-24T01:18:14;17.50;99.90
67890;DHT22;54685;52.082;5.426;2023-08-24T01:20:43;17.40;99.90
67890;DHT22;54685;52.082;5.426;2023-08-24T01:23:32;17.40;99.90
67890;DHT22;54685;52.082;5.426;2023-08-24T01:26:11;17.50;99.90
67890;DHT22;54685;52.082;5.426;2023-08-24T01:28:39;17.40;99.90
67890;DHT22;54685;52.082;5.426;2023-08-24T01:31:06;17.30;99.90
67890;DHT22;54685;52.082;5.426;2023-08-24T01:33:34;17.30;99.90
67890;DHT22;54685;52.082;5.426;2023-08-24T01:36:01;17.30;99.90
67890;DHT22;54685;52.082;5.426;2023-08-24T01:38:30;17.30;99.90
67890;DHT22;54685;52.082;5.426;2023-08-24T01:43:35;17.30;99.90
67890;DHT22;54685;52.082;5.426;2023-08-24T01:46:07;17.30;99.90
67890;DHT22;54685;52.082;5.426;2023-08-24T01:48:35;17.30;99.90
67890;DHT22;54685;52.082;5.426;2023-08-24T01:51:03;17.30;99.90
67890;DHT22;54685;52.082;5.426;2023-08-24T01:53:31;17.30;99.90
67890;DHT22;54685;52.082;5.426;2023-08-24T01:55:58;17.30;99.90
67890;DHT22;54685;52.082;5.426;2023-08-24T01:58:25;17.30;99.90
67890;DHT22;54685;52.082;5.426;2023-08-24T02:00:52;17.30;99.90
67890;DHT22;54685;52.082;5.426;2023-08-24T02:03:19;17.30;99.90
67890;DHT22;54685;52.082;5.426;2023-08-24T02:05:46;17.40;99.90
67890;DHT22;54685;52.082;5.426;2023-08-24T02:08:13;17.40;99.90
67890;DHT22;54685;52.082;5.426;2023-08-24T02:10:40;17.40;99.90
67890;DHT22;54685;52.082;5.426;2023-08-24T02:13:07;17.40;99.90
67890;DHT22;54685;52.082;5.426;2023-08-24T02:15:34;17.40;99.90
67890;DHT22;54685;52.082;5.426;2023-08-24T02:18:01;17.40;99.90
67890;DHT22;54685;52.082;5.426;2023-08-24T02:20:27;17.40;99.90
67890;DHT22;54685;52.082;5.426;2023-08-24T02:22:54;17.40;99.90
67890;DHT22;54685;52.082;5.426;2023-08-24T02:25:21;17.50;99.90
67890;DHT22;54685;52.082;5.426;2023-08-24T02:27:48;17.40;99.90
67890;DHT22;54685;52.082;5.426;2023-08-24T02:30:16;17.40;99.90
67890;DHT22;54685;52.082;5.426;2023-08-24T02:32:42;17.50;99.90
67890;DHT22;54685;52.082;5.426;2023-08-24T02:35:10;17.50;99.90
67890;DHT22;54685;52.082;5.426;2023-08-24T02:37:36;17.50;99.90
67890;DHT22;54685;52.082;5.426;2023-08-24T02:40:04;17.70;99.90
67890;DHT22;54685;52.082;5.426;2023-08-24T02:42:33;17.70;99.90
67890;DHT22;54685;52.082;5.426;2023-08-24T02:45:00;17.80;99.90
67890;DHT22;54685;52.082;5.426;2023-08-24T02:47:26;17.80;99.90
67890;DHT22;54685;52.082;5.426;2023-08-24T02:49:53;17.80;99.90
67890;DHT22;54685;52.082;5.426;2023-08-24T02:52:20;17.80;99.90
67890;DHT22;54685;52.082;5.426;2023-08-24T02:54:49;17.80;99.90
67890;DHT22;54685;52.082;5.426;2023-08-24T02:57:16;17.80;99.90
67890;DHT22;54685;52.082;5.426;2023-08-24T02:59:42;17.60;99.90
67890;DHT22;54685;52.082;5.426;2023-08-24T03:02:11;17.50;99.90
67890;DHT22;54685;52.082;5.426;2023-08-24T03:04:38;17.60;99.90
67890;DHT22;54685;52.082;5.426;2023-08-24T03:07:04;17.50;99.90
67890;DHT22;54685;52.082;5.426;2023-08-24T03:09:34;17.50;99.90
67890;DHT22;54685;52.082;5.426;2023-08-24T03:12:02;17.50;99.90
67890;DHT22;54685;52.082;5.426;2023-08-24T03:14:29;17.40;99.90
67890;DHT22;54685;52.082;5.426;2023-08-24T03:16:56;17.40;99.90
67890;DHT22;54685;52.082;5.426;2023-08-24T03:19:24;17.40;99.90
67890;DHT22;54685;52.082;5.426;2023-08-24T03:21:50;17.40;99.90
67890;DHT22;54685;52.082;5.426;2023-08-24T03:24:17;17.40;99.90
67890;DHT22;54685;52.082;5.426;2023-08-24T03:26:44;17.40;99.90
67890;DHT22;54685;52.082;5.426;2023-08-24T03:29:11;17.30;99.90
67890;DHT22;54685;52.082;5.426;2023-08-24T03:31:38;17.30;99.90
67890;DHT22;54685;52.082;5.426;2023-08-24T03:34:05;17.30;99.90
67890;DHT22;54685;52.082;5.426;2023-08-24T03:36:32;17.30;99.90
67890;DHT22;54685;52.082;5.426;2023-08-24T03:38:59;17.30;99.90
67890;DHT22;54685;52.082;5.426;2023-08-24T03:41:28;17.30;99.90
67890;DHT22;54685;52.082;5.426;2023-08-24T03:43:57;17.20;99.90
67890;DHT22;54685;52.082;5.426;2023-08-24T03:46:24;17.20;99.90
67890;DHT22;54685;52.082;5.426;2023-08-24T03:48:52;17.20;99.90
67890;DHT22;54685;52.082;5.426;2023-08-24T03:51:19;17.20;99.90
67890;DHT22;54685;52.082;5.426;2023-08-24T03:53:46;17.10;99.90
67890;DHT22;54685;52.082;5.426;2023-08-24T03:56:13;17.10;99.90
67890;DHT22;54685;52.082;5.426;2023-08-24T03:58:40;17.00;99.90
67890;DHT22;54685;52.082;5.426;2023-08-24T04:01:11;17.00;99.90
67890;DHT22;54685;52.082;5.426;2023-08-24T04:03:38;17.00;99.90
67890;DHT22;54685;52.082;5.426;2023-08-24T04:06:05;17.00;99.90
67890;DHT22;54685;52.082;5.426;2023-08-24T04:08:32;17.00;99.90
67890;DHT22;54685;52.082;5.426;2023-08-24T04:11:00;16.90;99.90
67890;DHT22;54685;52.082;5.426;2023-08-24T04:13:27;16.90;99.90
67890;DHT22;54685;52.082;5.426;2023-08-24T04:15:54;16.90;99.90
67890;DHT22;54685;52.082;5.426;2023-08-24T04:18:21;16.80;99.90
67890;DHT22;54685;52.082;5.426;2023-08-24T04:20:48;16.80;99.90
67890;DHT22;54685;52.082;5.426;2023-08-24T04:23:23;16.80;99.90
67890;DHT22;54685;52.082;5.426;2023-08-24T04:25:49;16.80;99.90
67890;DHT22;54685;52.082;5.426;2023-08-24T04:28:16;16.80;99.90
67890;DHT22;54685;52.082;5.426;2023-08-24T04:30:54;16.80;99.90
67890;DHT22;54685;52.082;5.426;2023-08-24T04:33:21;16.90;99.90
67890;DHT22;54685;52.082;5.426;2023-08-24T04:35:48;16.90;99.90
67890;DHT22;54685;52.082;5.426;2023-08-24T04:38:18;16.90;99.90
67890;DHT22;54685;52.082;5.426;2023-08-24T04:40:51;16.90;99.90
67890;DHT22;54685;52.082;5.426;2023-08-24T04:43:19;16.80;99.90
67890;DHT22;54685;52.082;5.426;2023-08-24T04:45:46;16.80;99.90
67890;DHT22;54685;52.082;5.426;2023-08-24T04:48:14;16.70;99.90
67890;DHT22;54685;52.082;5.426;2023-08-24T04:50:45;16.70;99.90
67890;DHT22;54685;52.082;5.426;2023-08-24T04:53:14;16.70;99.90
67890;DHT22;54685;52.082;5.426;2023-08-24T04:55:41;16.70;99.90
67890;DHT22;54685;52.082;5.426;2023-08-24T04:58:09;16.70;99.90
67890;DHT22;54685;52.082;5.426;2023-08-24T05:00:36;16.70;99.90
67890;DHT22;54685;52.082;5.426;2023-08-24T05:03:07;16.70;99.90
67890;DHT22;54685;52.082;5.426;2023-08-24T05:05:35;16.70;99.90
67890;DHT22;54685;52.082;5.426;2023-08-24T05:08:04;16.70;99.90
67890;DHT22;54685;52.082;5.426;2023-08-24T05:10:39;16.70;99.90
67890;DHT22;54685;52.082;5.426;2023-08-24T05:13:06;16.70;99.90
67890;DHT22;54685;52.082;5.426;2023-08-24T05:15:33;16.70;99.90
67890;DHT22;54685;52.082;5.426;2023-08-24T05:18:00;16.70;99.90
67890;DHT22;54685;52.082;5.426;2023-08-24T05:20:27;16.80;99.90
67890;DHT22;54685;52.082;5.426;2023-08-24T05:22:54;16.80;99.90
67890;DHT22;54685;52.082;5.426;2023-08-24T05:25:22;16.80;99.90
67890;DHT22;54685;52.082;5.426;2023-08-24T05:27:49;16.70;99.90
67890;DHT22;54685;52.082;5.426;2023-08-24T05:30:17;16.80;99.90
67890;DHT22;54685;52.082;5.426;2023-08-24T05:32:43;16.80;99.90
67890;DHT22;54685;52.082;5.426;2023-08-24T05:35:10;16.80;99.90
67890;DHT22;54685;52.082;5.426;2023-08-24T05:37:38;16.90;99.90
67890;DHT22;54685;52.082;5.426;2023-08-24T05:40:05;16.80;99.90
67890;DHT22;54685;52.082;5.426;2023-08-24T05:42:32;16.90;99.90
67890;DHT22;54685;52.082;5.426;2023-08-24T05:44:59;16.90;99.90
67890;DHT22;54685;52.082;5.426;2023-08-24T05:47:26;16.90;99.90
67890;DHT22;54685;52.082;5.426;2023-08-24T05:49:52;16.90;99.90
67890;DHT22;54685;52.082;5.426;2023-08-24T05:52:19;17.00;99.90
67890;DHT22;54685;52.082;5.426;2023-08-24T05:54:46;17.10;99.90
67890;DHT22;54685;52.082;5.426;2023-08-24T05:57:13;17.10;99.90
67890;DHT22;54685;52.082;5.426;2023-08-24T05:59:40;17.20;99.90
67890;DHT22;54685;52.082;5.426;2023-08-24T06:02:07;17.30;99.90
67890;DHT22;54685;52.082;5.426;2023-08-24T06:04:34;17.30;99.90
67890;DHT22;54685;52.082;5.426;2023-08-24T06:07:01;17.30;99.90
67890;DHT22;54685;52.082;5.426;2023-08-24T06:09:29;17.40;99.90
67890;DHT22;54685;52.082;5.426;2023-08-24T06:11:56;17.50;99.90
67890;DHT22;54685;52.082;5.426;2023-08-24T06:14:22;17.60;99.90
67890;DHT22;54685;52.082;5.426;2023-08-24T06:16:52;17.60;99.90
67890;DHT22;54685;52.082;5.426;2023-08-24T06:19:19;17.70;99.90
67890;DHT22;54685;52.082;5.426;2023-08-24T06:21:46;17.80;99.90
67890;DHT22;54685;52.082;5.426;2023-08-24T06:24:13;17.90;99.90
67890;DHT22;54685;52.082;5.426;2023-08-24T06:26:41;17.90;99.90
67890;DHT22;54685;52.082;5.426;2023-08-24T06:29:07;18.00;99.90
67890;DHT22;54685;52.082;5.426;2023-08-24T06:31:34;18.00;99.90
67890;DHT22;54685;52.082;5.426;2023-08-24T06:34:01;18.10;99.90
67890;DHT22;54685;52.082;5.426;2023-08-24T06:36:28;18.20;99.90
67890;DHT22;54685;52.082;5.426;2023-08-24T06:38:56;18.20;99.90
67890;DHT22;54685;52.082;5.426;2023-08-24T06:41:23;18.30;99.90
67890;DHT22;54685;52.082;5.426;2023-08-24T06:43:50;18.40;99.90
67890;DHT22;54685;52.082;5.426;2023-08-24T06:46:17;18.50;99.90
67890;DHT22;54685;52.082;5.426;2023-08-24T06:48:46;18.50;99.90
67890;DHT22;54685;52.082;5.426;2023-08-24T06:51:12;18.70;99.90
67890;DHT22;54685;52.082;5.426;2023-08-24T06:53:39;18.70;99.90
67890;DHT22;54685;52.082;5.426;2023-08-24T06:56:06;18.80;99.90
67890;DHT22;54685;52.082;5.426;2023-08-24T06:58:33;18.80;99.90
67890;DHT22;54685;52.082;5.426;2023-08-24T07:01:00;18.90;99.90
67890;DHT22;54685;52.082;5.426;2023-08-24T07:03:27;18.90;99.90
67890;DHT22;54685;52.082;5.426;2023-08-24T07:05:54;19.00;99.90
67890;DHT22;54685;52.082;5.426;2023-08-24T07:08:21;19.10;99.90
67890;DHT22;54685;52.082;5.426;2023-08-24T07:10:48;19.10;99.90
67890;DHT22;54685;52.082;5.426;2023-08-24T07:13:15;19.20;99.90
67890;DHT22;54685;52.082;5.426;2023-08-24T07:15:42;19.30;99.90
67890;DHT22;54685;52.082;5.426;2023-08-24T07:18:09;19.30;99.90
67890;DHT22;54685;52.082;5.426;2023-08-24T07:20:37;19.40;99.90
67890;DHT22;54685;52.082;5.426;2023-08-24T07:23:04;19.50;99.90
67890;DHT22;54685;52.082;5.426;2023-08-24T07:25:31;19.50;99.90
67890;DHT22;54685;52.082;5.426;2023-08-24T07:27:58;19.60;99.90
67890;DHT22;54685;52.082;5.426;2023-08-24T07:30:26;19.70;99.90
67890;DHT22;54685;52.082;5.426;2023-08-24T07:33:01;19.70;99.90
67890;DHT22;54685;52.082;5.426;2023-08-24T07:35:30;19.80;99.90
67890;DHT22;54685;52.082;5.426;2023-08-24T07:37:57;19.90;99.90
67890;DHT22;54685;52.082;5.426;2023-08-24T07:40:23;20.00;99.90
67890;DHT22;54685;52.082;5.426;2023-08-24T07:42:53;20.00;99.90
67890;DHT22;54685;52.082;5.426;2023-08-24T07:45:23;20.10;99.90
67890;DHT22;54685;52.082;5.426;2023-08-24T07:47:50;20.20;99.90
67890;DHT22;54685;52.082;5.426;2023-08-24T07:50:17;20.20;99.90
67890;DHT22;54685;52.082;5.426;2023-08-24T07:52:44;20.30;99.90
67890;DHT22;54685;52.082;5.426;2023-08-24T07:55:11;20.40;99.90
67890;DHT22;54685;52.082;5.426;2023-08-24T07:57:38;20.50;99.90
67890;DHT22;54685;52.082;5.426;2023-08-24T08:00:06;20.60;99.90
67890;DHT22;54685;52.082;5.426;2023-08-24T08:02:38;20.70;99.90
67890;DHT22;54685;52.082;5.426;2023-08-24T08:05:05;20.80;99.90
67890;DHT22;54685;52.082;5.426;2023-08-24T08:07:37;20.90;99.90
67890;DHT22;54685;52.082;5.426;2023-08-24T08:10:04;21.00;99.90
67890;DHT22;54685;52.082;5.426;2023-08-24T08:12:31;21.10;99.90
67890;DHT22;54685;52.082;5.426;2023-08-24T08:14:59;21.40;99.90
67890;DHT22;54685;52.082;5.426;2023-08-24T08:17:26;21.40;99.90
67890;DHT22;54685;52.082;5.426;2023-08-24T08:19:55;21.50;99.90
67890;DHT22;54685;52.082;5.426;2023-08-24T08:22:22;21.60;99.90
67890;DHT22;54685;52.082;5.426;2023-08-24T08:24:49;21.80;99.90
67890;DHT22;54685;52.082;5.426;2023-08-24T08:27:17;21.80;99.90
67890;DHT22;54685;52.082;5.426;2023-08-24T08:29:44;21.90;99.90
67890;DHT22;54685;52.082;5.426;2023-08-24T08:32:10;22.00;99.90
67890;DHT22;54685;52.082;5.426;2023-08-24T08:34:38;22.10;99.90
67890;DHT22;54685;52.082;5.426;2023-08-24T08:37:05;22.20;99.90
67890;DHT22;54685;52.082;5.426;2023-08-24T08:39:33;22.30;99.90
67890;DHT22;54685;52.082;5.426;2023-08-24T08:42:00;22.50;99.90
67890;DHT22;54685;52.082;5.426;2023-08-24T08:44:32;22.50;99.90
67890;DHT22;54685;52.082;5.426;2023-08-24T08:46:59;22.60;99.90
67890;DHT22;54685;52.082;5.426;2023-08-24T08:49:29;22.60;99.90
67890;DHT22;54685;52.082;5.426;2023-08-24T08:51:56;22.70;99.90
67890;DHT22;54685;52.082;5.426;2023-08-24T08:54:23;22.70;99.90
67890;DHT22;54685;52.082;5.426;2023-08-24T08:56:50;22.80;99.90
67890;DHT22;54685;52.082;5.426;2023-08-24T08:59:17;22.90;99.90
67890;DHT22;54685;52.082;5.426;2023-08-24T09:01:45;23.00;99.90
67890;DHT22;54685;52.082;5.426;2023-08-24T09:04:14;23.10;99.90
67890;DHT22;54685;52.082;5.426;2023-08-24T09:06:41;23.10;99.90
67890;DHT22;54685;52.082;5.426;2023-08-24T09:09:09;23.20;99.90
67890;DHT22;54685;52.082;5.426;2023-08-24T09:11:37;23.30;99.90
67890;DHT22;54685;52.082;5.426;2023-08-24T09:14:06;23.50;99.90
67890;DHT22;54685;52.082;5.426;2023-08-24T09:16:33;23.60;99.90
67890;DHT22;54685;52.082;5.426;2023-08-24T09:19:05;23.70;99.90
67890;DHT22;54685;52.082;5.426;2023-08-24T09:21:36;23.90;99.90
67890;DHT22;54685;52.082;5.426;2023-08-24T09:24:04;24.10;99.90
67890;DHT22;54685;52.082;5.426;2023-08-24T09:26:32;24.30;99.90
67890;DHT22;54685;52.082;5.426;2023-08-24T09:29:10;24.60;99.90
67890;DHT22;54685;52.082;5.426;2023-08-24T09:31:39;24.80;99.90
67890;DHT22;54685;52.082;5.426;2023-08-24T09:34:06;25.00;99.90
67890;DHT22;54685;52.082;5.426;2023-08-24T09:36:34;25.30;99.90
67890;DHT22;54685;52.082;5.426;2023-08-24T09:39:03;25.40;99.90
67890;DHT22;54685;52.082;5.426;2023-08-24T09:41:41;25.50;99.90
67890;DHT22;54685;52.082;5.426;2023-08-24T09:44:09;25.50;95.70
67890;DHT22;54685;52.082;5.426;2023-08-24T09:46:36;25.60;99.90
67890;DHT22;54685;52.082;5.426;2023-08-24T09:49:06;25.70;97.30
67890;DHT22;54685;52.082;5.426;2023-08-24T09:51:34;25.70;98.30
67890;DHT22;54685;52.082;5.426;2023-08-24T09:54:04;25.70;98.70
67890;DHT22;54685;52.082;5.426;2023-08-24T09:56:39;25.80;97.00
67890;DHT22;54685;52.082;5.426;2023-08-24T09:59:14;25.80;94.70
67890;DHT22;54685;52.082;5.426;2023-08-24T10:01:46;25.80;95.00
67890;DHT22;54685;52.082;5.426;2023-08-24T10:04:17;25.70;96.30
67890;DHT22;54685;52.082;5.426;2023-08-24T10:06:48;25.60;97.30
67890;DHT22;54685;52.082;5.426;2023-08-24T10:09:22;25.50;93.40
67890;DHT22;54685;52.082;5.426;2023-08-24T10:11:58;25.40;92.80
67890;DHT22;54685;52.082;5.426;2023-08-24T10:17:11;25.20;94.90
67890;DHT22;54685;52.082;5.426;2023-08-24T10:19:42;25.00;96.30
67890;DHT22;54685;52.082;5.426;2023-08-24T10:22:10;24.80;97.10
67890;DHT22;54685;52.082;5.426;2023-08-24T10:24:37;24.70;98.60
67890;DHT22;54685;52.082;5.426;2023-08-24T10:27:05;24.50;99.70
67890;DHT22;54685;52.082;5.426;2023-08-24T10:29:35;24.40;99.90
67890;DHT22;54685;52.082;5.426;2023-08-24T10:32:03;24.40;99.90
67890;DHT22;54685;52.082;5.426;2023-08-24T10:34:30;24.40;99.90
67890;DHT22;54685;52.082;5.426;2023-08-24T10:37:10;24.40;99.90
67890;DHT22;54685;52.082;5.426;2023-08-24T10:39:45;24.30;99.90
67890;DHT22;54685;52.082;5.426;2023-08-24T10:42:13;24.20;99.90
67890;DHT22;54685;52.082;5.426;2023-08-24T10:44:45;24.00;99.90
67890;DHT22;54685;52.082;5.426;2023-08-24T10:50:04;24.00;99.90
67890;DHT22;54685;52.082;5.426;2023-08-24T10:55:03;24.20;99.90
67890;DHT22;54685;52.082;5.426;2023-08-24T10:57:38;24.00;99.90
67890;DHT22;54685;52.082;5.426;2023-08-24T11:02:48;23.90;99.90
67890;DHT22;54685;52.082;5.426;2023-08-24T11:10:16;23.90;99.90
67890;DHT22;54685;52.082;5.426;2023-08-24T11:15:36;23.80;99.90
67890;DHT22;54685;52.082;5.426;2023-08-24T11:20:43;23.70;99.90
67890;DHT22;54685;52.082;5.426;2023-08-24T11:23:11;23.60;99.90
67890;DHT22;54685;52.082;5.426;2023-08-24T11:25:38;23.70;99.90
67890;DHT22;54685;52.082;5.426;2023-08-24T11:28:05;23.60;99.90
67890;DHT22;54685;52.082;5.426;2023-08-24T11:30:32;23.60;99.90
67890;DHT22;54685;52.082;5.426;2023-08-24T11:33:00;23.60;99.90
67890;DHT22;54685;52.082;5.426;2023-08-24T11:35:27;23.70;99.90
67890;DHT22;54685;52.082;5.426;2023-08-24T11:38:03;23.70;99.90
67890;DHT22;54685;52.082;5.426;2023-08-24T11:40:30;23.80;99.90
67890;DHT22;54685;52.082;5.426;2023-08-24T11:42:58;23.70;99.90
67890;DHT22;54685;52.082;5.426;2023-08-24T11:45:31;23.80;99.90
67890;DHT22;54685;52.082;5.426;2023-08-24T11:47:59;23.80;99.90
67890;DHT22;54685;52.082;5.426;2023-08-24T11:50:28;23.80;99.90
67890;DHT22;54685;52.082;5.426;2023-08-24T11:52:55;23.80;99.90
67890;DHT22;54685;52.082;5.426;2023-08-24T11:55:22;23.90;99.90
67890;DHT22;54685;52.082;5.426;2023-08-24T11:57:50;23.90;99.90
67890;DHT22;54685;52.082;5.426;2023-08-24T12:00:21;24.00;99.90
67890;DHT22;54685;52.082;5.426;2023-08-24T12:02:49;24.10;99.90
67890;DHT22;54685;52.082;5.426;2023-08-24T12:05:23;24.20;99.90
67890;DHT22;54685;52.082;5.426;2023-08-24T12:07:54;24.30;99.90
67890;DHT22;54685;52.082;5.426;2023-08-24T12:10:21;24.40;99.90
67890;DHT22;54685;52.082;5.426;2023-08-24T12:12:48;24.50;99.90
67890;DHT22;54685;52.082;5.426;2023-08-24T12:15:20;24.60;99.90
67890;DHT22;54685;52.082;5.426;2023-08-24T12:17:47;24.70;99.90
67890;DHT22;54685;52.082;5.426;2023-08-24T12:20:22;24.90;99.90
67890;DHT22;54685;52.082;5.426;2023-08-24T12:22:52;24.80;99.90
67890;DHT22;54685;52.082;5.426;2023-08-24T12:25:23;24.80;99.90
67890;DHT22;54685;52.082;5.426;2023-08-24T12:27:51;24.80;99.90
67890;DHT22;54685;52.082;5.426;2023-08-24T12:30:19;24.80;99.90
67890;DHT22;54685;52.082;5.426;2023-08-24T12:32:47;24.90;99.90
67890;DHT22;54685;52.082;5.426;2023-08-24T12:35:17;24.90;99.90
67890;DHT22;54685;52.082;5.426;2023-08-24T12:37:44;24.90;99.90
67890;DHT22;54685;52.082;5.426;2023-08-24T12:40:12;24.90;99.90
67890;DHT22;54685;52.082;5.426;2023-08-24T12:42:39;24.90;99.90
67890;DHT22;54685;52.082;5.426;2023-08-24T12:45:06;24.90;99.90
67890;DHT22;54685;52.082;5.426;2023-08-24T12:47:33;24.90;99.90
67890;DHT22;54685;52.082;5.426;2023-08-24T12:50:05;25.00;99.90
67890;DHT22;54685;52.082;5.426;2023-08-24T12:52:32;25.00;99.90
67890;DHT22;54685;52.082;5.426;2023-08-24T12:54:59;25.00;99.90
67890;DHT22;54685;52.082;5.426;2023-08-24T12:57:26;25.10;99.90
67890;DHT22;54685;52.082;5.426;2023-08-24T12:59:52;25.10;99.90
67890;DHT22;54685;52.082;5.426;2023-08-24T13:02:21;25.10;99.90
67890;DHT22;54685;52.082;5.426;2023-08-24T13:04:59;25.20;99.90
67890;DHT22;54685;52.082;5.426;2023-08-24T13:07:28;25.40;99.90
67890;DHT22;54685;52.082;5.426;2023-08-24T13:09:54;25.60;99.90
67890;DHT22;54685;52.082;5.426;2023-08-24T13:12:21;25.70;99.90
67890;DHT22;54685;52.082;5.426;2023-08-24T13:14:48;25.80;99.90
67890;DHT22;54685;52.082;5.426;2023-08-24T13:17:15;26.00;99.90
67890;DHT22;54685;52.082;5.426;2023-08-24T13:19:42;26.00;99.90
67890;DHT22;54685;52.082;5.426;2023-08-24T13:22:08;26.10;99.90
67890;DHT22;54685;52.082;5.426;2023-08-24T13:24:35;26.20;99.90
67890;DHT22;54685;52.082;5.426;2023-08-24T13:27:02;26.30;99.90
67890;DHT22;54685;52.082;5.426;2023-08-24T13:29:29;26.50;99.90
67890;DHT22;54685;52.082;5.426;2023-08-24T13:31:56;26.40;99.90
67890;DHT22;54685;52.082;5.426;2023-08-24T13:34:23;26.50;99.90
67890;DHT22;54685;52.082;5.426;2023-08-24T13:36:50;26.60;99.40
67890;DHT22;54685;52.082;5.426;2023-08-24T13:39:17;26.60;98.80
67890;DHT22;54685;52.082;5.426;2023-08-24T13:41:43;26.60;99.90
67890;DHT22;54685;52.082;5.426;2023-08-24T13:44:10;26.50;99.40
67890;DHT22;54685;52.082;5.426;2023-08-24T13:46:37;26.30;99.90
67890;DHT22;54685;52.082;5.426;2023-08-24T13:49:04;26.30;99.90
67890;DHT22;54685;52.082;5.426;2023-08-24T13:51:31;26.40;99.90
67890;DHT22;54685;52.082;5.426;2023-08-24T13:53:58;26.40;99.90
67890;DHT22;54685;52.082;5.426;2023-08-24T13:56:25;26.50;99.70
67890;DHT22;54685;52.082;5.426;2023-08-24T13:58:52;26.50;99.90
67890;DHT22;54685;52.082;5.426;2023-08-24T14:01:19;26.40;99.90
67890;DHT22;54685;52.082;5.426;2023-08-24T14:03:46;26.50;99.90
67890;DHT22;54685;52.082;5.426;2023-08-24T14:06:13;26.40;99.90
67890;DHT22;54685;52.082;5.426;2023-08-24T14:08:40;26.40;99.90
67890;DHT22;54685;52.082;5.426;2023-08-24T14:11:07;26.30;99.90
67890;DHT22;54685;52.082;5.426;2023-08-24T14:13:34;26.30;99.90
67890;DHT22;54685;52.082;5.426;2023-08-24T14:16:00;26.30;99.90
67890;DHT22;54685;52.082;5.426;2023-08-24T14:18:27;26.40;99.90
67890;DHT22;54685;52.082;5.426;2023-08-24T14:20:55;26.30;99.90
67890;DHT22;54685;52.082;5.426;2023-08-24T14:23:22;26.30;99.90
67890;DHT22;54685;52.082;5.426;2023-08-24T14:25:49;26.20;99.90
67890;DHT22;54685;52.082;5.426;2023-08-24T14:28:20;26.20;99.90
67890;DHT22;54685;52.082;5.426;2023-08-24T14:30:51;26.20;99.90
67890;DHT22;54685;52.082;5.426;2023-08-24T14:33:18;26.20;99.90
67890;DHT22;54685;52.082;5.426;2023-08-24T14:35:52;26.10;99.90
67890;DHT22;54685;52.082;5.426;2023-08-24T14:38:19;26.10;99.90
67890;DHT22;54685;52.082;5.426;2023-08-24T14:40:46;25.90;99.90
67890;DHT22;54685;52.082;5.426;2023-08-24T14:43:16;26.00;99.90
67890;DHT22;54685;52.082;5.426;2023-08-24T14:45:42;25.90;99.90
67890;DHT22;54685;52.082;5.426;2023-08-24T14:48:09;25.70;99.90
67890;DHT22;54685;52.082;5.426;2023-08-24T14:50:40;25.60;99.90
67890;DHT22;54685;52.082;5.426;2023-08-24T14:53:07;25.60;99.90
67890;DHT22;54685;52.082;5.426;2023-08-24T14:55:34;25.50;99.90
67890;DHT22;54685;52.082;5.426;2023-08-24T14:58:03;25.60;99.90
67890;DHT22;54685;52.082;5.426;2023-08-24T15:00:30;25.40;99.90
67890;DHT22;54685;52.082;5.426;2023-08-24T15:02:57;25.30;99.90
67890;DHT22;54685;52.082;5.426;2023-08-24T15:05:24;25.30;99.90
67890;DHT22;54685;52.082;5.426;2023-08-24T15:07:51;25.20;99.90
67890;DHT22;54685;52.082;5.426;2023-08-24T15:10:18;25.20;99.90
67890;DHT22;54685;52.082;5.426;2023-08-24T15:12:46;25.20;99.90
67890;DHT22;54685;52.082;5.426;2023-08-24T15:15:15;25.20;99.90
67890;DHT22;54685;52.082;5.426;2023-08-24T15:17:44;25.10;99.90
67890;DHT22;54685;52.082;5.426;2023-08-24T15:20:16;25.10;99.90
67890;DHT22;54685;52.082;5.426;2023-08-24T15:22:43;25.10;99.90
67890;DHT22;54685;52.082;5.426;2023-08-24T15:25:10;25.20;99.90
67890;DHT22;54685;52.082;5.426;2023-08-24T15:27:37;25.20;99.90
67890;DHT22;54685;52.082;5.426;2023-08-24T15:30:07;25.20;99.90
67890;DHT22;54685;52.082;5.426;2023-08-24T15:32:36;25.10;99.90
67890;DHT22;54685;52.082;5.426;2023-08-24T15:35:03;25.10;99.90
67890;DHT22;54685;52.082;5.426;2023-08-24T15:37:32;25.10;99.90
67890;DHT22;54685;52.082;5.426;2023-08-24T15:39:59;25.10;99.90
67890;DHT22;54685;52.082;5.426;2023-08-24T15:42:27;25.10;99.90
67890;DHT22;54685;52.082;5.426;2023-08-24T15:44:54;25.20;99.90
67890;DHT22;54685;52.082;5.426;2023-08-24T15:47:20;25.20;99.90
67890;DHT22;54685;52.082;5.426;2023-08-24T15:49:47;25.20;99.90
67890;DHT22;54685;52.082;5.426;2023-08-24T15:52:14;25.30;99.90
67890;DHT22;54685;52.082;5.426;2023-08-24T15:54:41;25.30;99.90
67890;DHT22;54685;52.082;5.426;2023-08-24T15:57:08;25.50;99.90
67890;DHT22;54685;52.082;5.426;2023-08-24T15:59:36;25.70;99.90
67890;DHT22;54685;52.082;5.426;2023-08-24T16:02:03;25.80;99.90